createdAt,value
2023-02-03T00:01:49.627Z,101201.72
2023-02-03T00:04:18.129Z,101196.22
2023-02-03T00:06:48.307Z,101196.22
2023-02-03T00:09:17.091Z,101192.78
2023-02-03T00:11:45.470Z,101203.16
2023-02-03T00:14:13.801Z,101192.78
2023-02-03T00:16:42.154Z,101179.41
2023-02-03T00:19:10.494Z,101182.84
2023-02-03T00:21:38.811Z,101187.13
2023-02-03T00:24:08.972Z,101188.13
2023-02-03T00:26:43.643Z,101172.47
2023-02-03T00:29:12.179Z,101176.75
2023-02-03T00:31:40.573Z,101183.66
2023-02-03T00:34:09.042Z,101180.00
2023-02-03T00:36:37.756Z,101169.28
2023-02-03T00:39:06.097Z,101162.16
2023-02-03T00:41:36.063Z,101156.06
2023-02-03T00:44:04.522Z,101163.16
2023-02-03T00:46:33.048Z,101156.06
2023-02-03T00:49:01.372Z,101156.06
2023-02-03T00:51:30.093Z,101160.50
2023-02-03T00:53:58.397Z,101155.22
2023-02-03T00:56:26.732Z,101155.81
2023-02-03T00:58:56.430Z,101159.47
2023-02-03T01:01:24.788Z,101158.44
2023-02-03T01:03:53.117Z,101166.38
2023-02-03T01:06:22.419Z,101178.75
2023-02-03T01:08:51.271Z,101177.75
2023-02-03T01:11:22.462Z,101177.75
2023-02-03T01:13:51.780Z,101162.72
2023-02-03T01:16:24.297Z,101156.44
2023-02-03T01:18:53.081Z,101167.81
2023-02-03T01:21:25.079Z,101156.06
2023-02-03T01:23:53.909Z,101148.31
2023-02-03T01:26:24.466Z,101134.94
2023-02-03T01:28:54.156Z,101126.00
2023-02-03T01:31:26.483Z,101100.41
2023-02-03T01:33:56.471Z,101095.13
2023-02-03T01:36:29.330Z,101090.66
2023-02-03T01:38:58.213Z,101078.47
2023-02-03T01:41:30.790Z,101094.50
2023-02-03T01:44:01.630Z,101096.16
2023-02-03T01:46:36.179Z,101099.59
2023-02-03T01:49:11.773Z,101108.53
2023-02-03T01:51:43.612Z,101081.28
2023-02-03T01:54:17.069Z,101068.94
2023-02-03T01:56:49.810Z,101083.31
2023-02-03T01:59:21.246Z,101098.53
2023-02-03T02:01:52.186Z,101083.91
2023-02-03T02:04:21.248Z,101075.13
2023-02-03T02:06:51.305Z,101071.88
2023-02-03T02:09:19.906Z,101088.53
2023-02-03T02:11:49.499Z,101083.06
2023-02-03T02:14:17.913Z,101081.25
2023-02-03T02:16:56.039Z,101097.91
2023-02-03T02:20:39.729Z,101093.81
2023-02-03T02:23:46.316Z,101077.34
2023-02-03T02:26:40.745Z,101073.50
2023-02-03T02:29:59.365Z,101064.34
2023-02-03T02:32:42.280Z,101094.19
2023-02-03T02:35:21.005Z,101086.09
2023-02-03T02:37:56.392Z,101082.44
2023-02-03T02:40:33.908Z,101082.06
2023-02-03T02:43:11.359Z,101067.84
2023-02-03T02:45:47.787Z,101061.38
2023-02-03T02:48:27.464Z,101061.56
2023-02-03T02:50:59.035Z,101073.78
2023-02-03T02:53:33.599Z,101082.69
2023-02-03T02:56:07.548Z,101093.44
2023-02-03T02:58:38.990Z,101086.53
2023-02-03T03:01:10.469Z,101085.53
2023-02-03T03:03:44.500Z,101105.63
2023-02-03T03:06:17.694Z,101101.53
2023-02-03T03:08:52.183Z,101108.84
2023-02-03T03:11:20.720Z,101120.22
2023-02-03T03:13:53.519Z,101129.16
2023-02-03T03:16:26.506Z,101130.13
2023-02-03T03:19:01.937Z,101139.28
2023-02-03T03:21:34.961Z,101144.72
2023-02-03T03:24:10.462Z,101156.94
2023-02-03T03:26:44.709Z,101154.47
2023-02-03T03:29:20.540Z,101151.03
2023-02-03T03:31:49.599Z,101149.41
2023-02-03T03:34:20.084Z,101141.66
2023-02-03T03:36:52.340Z,101147.94
2023-02-03T03:39:29.288Z,101139.41
2023-02-03T03:42:03.196Z,101138.75
2023-02-03T03:44:38.638Z,101133.84
2023-02-03T03:47:15.550Z,101147.25
2023-02-03T03:49:48.230Z,101136.69
2023-02-03T03:52:23.023Z,101128.78
2023-02-03T03:54:52.519Z,101124.47
2023-02-03T03:57:30.065Z,101115.56
2023-02-03T03:59:59.585Z,101139.94
2023-02-03T04:02:29.893Z,101115.56
2023-02-03T04:05:01.441Z,101112.94
2023-02-03T04:07:39.895Z,101115.75
2023-02-03T04:10:19.994Z,101096.47
2023-02-03T04:12:48.346Z,101090.16
2023-02-03T04:15:16.861Z,101091.19
2023-02-03T04:17:45.213Z,101108.63
2023-02-03T04:20:15.735Z,101101.72
2023-02-03T04:22:44.280Z,101088.91
2023-02-03T04:25:12.605Z,101091.53
2023-02-03T04:27:40.995Z,101076.09
2023-02-03T04:30:11.237Z,101078.72
2023-02-03T04:32:39.577Z,101084.00
2023-02-03T04:35:09.319Z,101095.41
2023-02-03T04:37:39.072Z,101091.91
2023-02-03T04:40:09.454Z,101104.50
2023-02-03T04:42:38.802Z,101107.16
2023-02-03T04:45:09.507Z,101115.88
2023-02-03T04:47:39.312Z,101118.50
2023-02-03T04:50:08.859Z,101105.13
2023-02-03T04:52:38.588Z,101120.94
2023-02-03T04:55:08.255Z,101110.22
2023-02-03T04:57:36.623Z,101097.84
2023-02-03T05:00:05.972Z,101097.03
2023-02-03T05:02:34.336Z,101103.31
2023-02-03T05:05:02.688Z,101106.78
2023-02-03T05:07:31.033Z,101103.31
2023-02-03T05:10:00.678Z,101103.31
2023-02-03T05:12:28.987Z,101107.59
2023-02-03T05:14:57.329Z,101112.66
2023-02-03T05:17:25.679Z,101109.22
2023-02-03T05:19:54.028Z,101116.31
2023-02-03T05:22:22.332Z,101120.78
2023-02-03T05:24:50.609Z,101114.69
2023-02-03T05:27:20.286Z,101110.22
2023-02-03T05:29:48.663Z,101122.41
2023-02-03T05:32:16.984Z,101122.25
2023-02-03T05:34:45.329Z,101123.88
2023-02-03T05:37:13.646Z,101111.47
2023-02-03T05:39:41.975Z,101110.66
2023-02-03T05:42:09.281Z,101111.28
2023-02-03T05:44:38.984Z,101103.56
2023-02-03T05:47:07.292Z,101098.09
2023-02-03T05:49:35.725Z,101093.66
2023-02-03T05:52:04.572Z,101092.00
2023-02-03T05:54:32.911Z,101075.16
2023-02-03T05:57:01.195Z,101088.38
2023-02-03T05:59:29.687Z,101086.53
2023-02-03T06:01:59.359Z,101098.34
2023-02-03T06:04:27.765Z,101078.25
2023-02-03T06:06:56.056Z,101072.78
2023-02-03T06:09:24.379Z,101064.66
2023-02-03T06:11:52.727Z,101053.28
2023-02-03T06:14:21.255Z,101057.56
2023-02-03T06:16:49.793Z,101056.13
2023-02-03T06:19:19.469Z,101055.31
2023-02-03T06:21:47.761Z,101059.94
2023-02-03T06:24:16.477Z,101061.13
2023-02-03T06:26:44.815Z,101047.13
2023-02-03T06:29:13.123Z,101045.28
2023-02-03T06:31:41.537Z,101051.22
2023-02-03T06:34:10.524Z,101044.09
2023-02-03T06:36:40.212Z,101047.56
2023-02-03T06:39:08.543Z,101036.81
2023-02-03T06:41:36.985Z,101032.34
2023-02-03T06:44:05.492Z,101033.97
2023-02-03T06:46:34.030Z,101049.66
2023-02-03T06:49:02.720Z,101050.47
2023-02-03T06:51:31.061Z,101052.91
2023-02-03T06:54:00.800Z,101057.00
2023-02-03T06:56:29.106Z,101051.72
2023-02-03T06:58:58.776Z,101063.91
2023-02-03T07:01:27.204Z,101072.63
2023-02-03T07:03:57.907Z,101098.88
2023-02-03T07:06:29.134Z,101089.72
2023-02-03T07:08:58.155Z,101077.97
2023-02-03T07:11:29.542Z,101071.06
2023-02-03T07:13:57.955Z,101088.53
2023-02-03T07:16:27.513Z,101093.81
2023-02-03T07:18:55.865Z,101105.41
2023-02-03T07:21:24.251Z,101107.84
2023-02-03T07:23:52.793Z,101108.47
2023-02-03T07:26:23.015Z,101114.94
2023-02-03T07:28:54.531Z,101104.59
2023-02-03T07:31:23.110Z,101111.66
2023-02-03T07:33:51.443Z,101107.41
2023-02-03T07:36:19.728Z,101109.88
2023-02-03T07:38:48.074Z,101116.94
2023-02-03T07:41:18.066Z,101117.78
2023-02-03T07:43:46.745Z,101125.69
2023-02-03T07:46:16.703Z,101124.03
2023-02-03T07:48:45.233Z,101132.78
2023-02-03T07:51:13.558Z,101121.41
2023-02-03T07:53:41.849Z,101104.75
2023-02-03T07:56:12.057Z,101117.97
2023-02-03T07:58:40.675Z,101112.50
2023-02-03T08:01:16.362Z,101116.94
2023-02-03T08:03:44.762Z,101108.19
2023-02-03T08:06:13.122Z,101116.94
2023-02-03T08:08:42.072Z,101126.53
2023-02-03T08:11:10.757Z,101129.75
2023-02-03T08:13:39.096Z,101126.31
2023-02-03T08:16:08.700Z,101120.22
2023-02-03T08:18:39.072Z,101125.50
2023-02-03T08:21:07.689Z,101130.78
2023-02-03T08:23:36.007Z,101145.00
2023-02-03T08:26:04.584Z,101138.06
2023-02-03T08:28:32.951Z,101138.06
2023-02-03T08:31:01.419Z,101130.78
2023-02-03T08:33:29.854Z,101121.25
2023-02-03T08:36:01.120Z,101129.97
2023-02-03T08:38:29.482Z,101128.34
2023-02-03T08:40:57.781Z,101129.16
2023-02-03T08:43:26.198Z,101130.78
2023-02-03T08:45:54.557Z,101125.31
2023-02-03T08:48:22.894Z,101133.06
2023-02-03T08:50:52.980Z,101124.94
2023-02-03T08:53:22.882Z,101119.47
2023-02-03T08:55:51.431Z,101103.44
2023-02-03T08:58:20.085Z,101100.78
2023-02-03T09:00:49.992Z,101126.19
2023-02-03T09:03:18.415Z,101125.19
2023-02-03T09:05:46.721Z,101127.63
2023-02-03T09:08:15.013Z,101111.78
2023-02-03T09:10:44.679Z,101111.41
2023-02-03T09:13:12.999Z,101108.41
2023-02-03T09:15:41.330Z,101111.66
2023-02-03T09:18:09.639Z,101099.28
2023-02-03T09:20:37.981Z,101099.28
2023-02-03T09:23:06.591Z,101108.84
2023-02-03T09:25:35.071Z,101114.94
2023-02-03T09:28:05.014Z,101114.94
2023-02-03T09:30:33.467Z,101105.81
2023-02-03T09:33:01.800Z,101112.72
2023-02-03T09:35:30.434Z,101100.16
2023-02-03T09:38:00.810Z,101100.56
2023-02-03T09:40:35.701Z,101103.84
2023-02-03T09:43:18.172Z,101113.41
2023-02-03T09:45:46.584Z,101102.81
2023-02-03T09:48:19.752Z,101092.91
2023-02-03T09:50:49.295Z,101110.19
2023-02-03T09:53:28.878Z,101100.63
2023-02-03T09:55:58.450Z,101093.34
2023-02-03T09:58:30.450Z,101100.25
2023-02-03T10:01:01.740Z,101108.81
2023-02-03T10:03:38.274Z,101104.13
2023-02-03T10:06:15.458Z,101122.69
2023-02-03T10:09:01.106Z,101128.97
2023-02-03T10:11:49.704Z,101132.22
2023-02-03T10:14:39.047Z,101114.38
2023-02-03T10:17:23.830Z,101119.28
2023-02-03T10:19:57.937Z,101115.25
2023-02-03T10:22:30.045Z,101119.34
2023-02-03T10:25:04.773Z,101119.13
2023-02-03T10:27:35.015Z,101108.56
2023-02-03T10:30:16.922Z,101116.47
2023-02-03T10:32:45.262Z,101118.53
2023-02-03T10:35:14.889Z,101120.19
2023-02-03T10:37:47.014Z,101112.25
2023-02-03T10:40:17.215Z,101091.13
2023-02-03T10:43:06.138Z,101082.16
2023-02-03T10:45:39.627Z,101085.84
2023-02-03T10:48:14.472Z,101086.66
2023-02-03T10:50:48.213Z,101076.06
2023-02-03T10:53:26.776Z,101067.13
2023-02-03T10:56:05.102Z,101067.59
2023-02-03T10:58:34.646Z,101075.31
2023-02-03T11:01:14.312Z,101066.38
2023-02-03T11:03:45.302Z,101062.72
2023-02-03T11:06:16.107Z,101053.16
2023-02-03T11:08:47.064Z,101053.34
2023-02-03T11:11:17.162Z,101063.91
2023-02-03T11:13:45.523Z,101066.56
2023-02-03T11:16:20.738Z,101055.81
2023-02-03T11:18:59.187Z,101053.97
2023-02-03T11:21:31.693Z,101061.09
2023-02-03T11:24:07.673Z,101051.50
2023-02-03T11:26:41.468Z,101061.09
2023-02-03T11:29:22.745Z,101065.38
2023-02-03T11:31:56.098Z,101067.00
2023-02-03T11:34:29.480Z,101081.44
2023-02-03T11:36:57.979Z,101083.09
2023-02-03T11:39:29.752Z,101079.00
2023-02-03T11:41:58.517Z,101080.63
2023-02-03T11:44:31.274Z,101095.31
2023-02-03T11:47:05.607Z,101095.50
2023-02-03T11:50:12.956Z,101095.69
2023-02-03T11:53:11.490Z,101093.44
2023-02-03T11:55:53.364Z,101080.41
2023-02-03T11:59:06.612Z,101061.44
2023-02-03T12:02:18.952Z,101062.66
2023-02-03T12:05:07.742Z,101048.41
2023-02-03T12:08:02.891Z,101036.84
2023-02-03T12:10:43.396Z,101034.03
2023-02-03T12:13:30.514Z,101032.38
2023-02-03T12:16:19.745Z,101034.03
2023-02-03T12:19:02.772Z,101025.91
2023-02-03T12:21:44.550Z,101036.50
2023-02-03T12:24:38.709Z,101006.13
2023-02-03T12:27:23.794Z,101024.63
2023-02-03T12:29:58.083Z,101018.16
2023-02-03T12:32:35.932Z,101034.66
2023-02-03T12:35:18.161Z,101018.81
2023-02-03T12:37:53.652Z,101014.94
2023-02-03T12:40:30.023Z,101012.28
2023-02-03T12:43:10.040Z,101005.19
2023-02-03T12:45:40.259Z,101006.81
2023-02-03T12:48:15.167Z,100997.06
2023-02-03T12:50:50.273Z,100999.69
2023-02-03T12:53:26.858Z,100998.69
2023-02-03T12:56:02.963Z,100988.91
2023-02-03T12:58:36.816Z,100983.44
2023-02-03T13:01:09.371Z,100968.00
2023-02-03T13:03:44.404Z,100969.25
2023-02-03T13:06:23.691Z,100968.84
2023-02-03T13:08:57.720Z,100967.81
2023-02-03T13:11:35.136Z,100958.28
2023-02-03T13:14:13.703Z,100966.19
2023-02-03T13:16:46.263Z,100970.47
2023-02-03T13:19:23.089Z,100978.19
2023-02-03T13:21:53.263Z,100976.38
2023-02-03T13:24:25.418Z,100973.75
2023-02-03T13:27:18.302Z,100969.66
2023-02-03T13:30:24.976Z,100985.53
2023-02-03T13:33:17.934Z,100971.28
2023-02-03T13:36:02.600Z,100959.88
2023-02-03T13:39:01.734Z,100953.78
2023-02-03T13:41:38.266Z,100938.72
2023-02-03T13:44:09.153Z,100943.63
2023-02-03T13:46:37.941Z,100936.28
2023-02-03T13:49:08.749Z,100932.66
2023-02-03T13:51:43.396Z,100924.50
2023-02-03T13:54:24.263Z,100949.94
2023-02-03T13:56:59.889Z,100945.50
2023-02-03T13:59:33.044Z,100945.50
2023-02-03T14:02:43.473Z,100954.63
2023-02-03T14:05:44.926Z,100961.75
2023-02-03T14:08:55.896Z,100950.53
2023-02-03T14:11:47.422Z,100947.91
2023-02-03T14:14:45.743Z,100960.31
2023-02-03T14:18:01.875Z,100967.63
2023-02-03T14:20:47.927Z,100971.09
2023-02-03T14:23:23.333Z,100962.75
2023-02-03T14:25:56.240Z,100954.41
2023-02-03T16:03:53.707Z,100998.97
2023-02-03T16:06:35.924Z,100997.16
2023-02-03T16:09:06.996Z,101012.03
2023-02-03T16:11:37.402Z,101011.63
2023-02-03T16:14:07.820Z,100997.41
2023-02-03T16:16:49.417Z,101010.44
2023-02-03T16:19:30.079Z,101014.09
2023-02-03T16:22:00.842Z,100994.16
2023-02-03T16:24:40.302Z,101002.91
2023-02-03T16:27:33.827Z,101011.88
2023-02-03T16:30:41.307Z,101020.78
2023-02-03T16:33:34.873Z,101019.59
2023-02-03T16:36:31.636Z,101038.13
2023-02-03T16:39:21.510Z,101041.56
2023-02-03T16:42:07.594Z,101032.81
2023-02-03T16:44:53.718Z,101025.09
2023-02-03T16:47:45.304Z,101029.56
2023-02-03T16:50:38.580Z,101029.16
2023-02-03T16:53:14.559Z,101038.53
2023-02-03T16:55:43.622Z,101038.13
2023-02-03T16:58:12.728Z,101041.38
2023-02-03T17:00:42.585Z,101039.38
2023-02-03T17:03:13.914Z,101026.34
2023-02-03T17:05:45.727Z,101028.78
2023-02-03T17:08:16.693Z,101032.63
2023-02-03T17:10:48.010Z,101036.72
2023-02-03T17:13:17.460Z,101040.19
2023-02-03T17:15:48.979Z,101050.75
2023-02-03T17:18:17.728Z,101037.53
2023-02-03T17:20:47.084Z,101046.09
2023-02-03T17:23:17.603Z,101051.41
2023-02-03T17:25:47.925Z,101048.75
2023-02-03T17:28:17.180Z,101034.72
2023-02-03T17:30:45.891Z,101051.19
2023-02-03T17:33:14.314Z,101044.06
2023-02-03T17:35:44.099Z,101059.13
2023-02-03T17:38:14.334Z,101053.81
2023-02-03T17:54:38.715Z,101055.84
2023-02-03T17:57:11.502Z,101065.19
2023-02-03T17:59:39.921Z,101057.69
2023-02-03T18:02:08.366Z,101066.22
2023-02-03T18:04:36.909Z,101073.97
2023-02-03T18:07:05.563Z,101078.44
2023-02-03T18:09:34.035Z,101068.25
2023-02-03T18:12:05.451Z,101073.16
2023-02-03T18:14:35.237Z,101068.69
2023-02-03T18:17:03.630Z,101066.03
2023-02-03T18:19:32.131Z,101069.53
2023-02-03T18:22:00.847Z,101070.34
2023-02-03T18:24:30.676Z,101070.34
2023-02-03T18:27:00.534Z,101072.16
2023-02-03T18:29:29.633Z,101071.31
2023-02-03T18:31:59.385Z,101079.09
2023-02-03T18:34:27.759Z,101068.50
2023-02-03T18:36:56.499Z,101066.25
2023-02-03T18:39:24.954Z,101063.38
2023-02-03T18:41:53.295Z,101069.09
2023-02-03T18:44:22.037Z,101069.50
2023-02-03T18:46:50.403Z,101059.34
2023-02-03T18:49:20.219Z,101059.78
2023-02-03T18:51:48.583Z,101078.31
2023-02-03T18:54:17.090Z,101079.13
2023-02-03T18:56:45.448Z,101077.47
2023-02-03T18:59:13.880Z,101086.25
2023-02-03T19:01:42.326Z,101076.25
2023-02-03T19:04:11.789Z,101085.00
2023-02-03T19:06:45.513Z,101090.28
2023-02-03T19:09:17.066Z,101083.38
2023-02-03T19:11:45.652Z,101085.00
2023-02-03T19:14:16.435Z,101091.09
2023-02-03T19:16:45.255Z,101110.47
2023-02-03T19:19:14.909Z,101121.06
2023-02-03T19:21:44.659Z,101125.72
2023-02-03T19:24:14.780Z,101114.50
2023-02-03T19:26:43.268Z,101109.84
2023-02-03T19:29:11.953Z,101119.81
2023-02-03T19:31:40.493Z,101128.78
2023-02-03T19:34:09.001Z,101118.00
2023-02-03T19:36:38.487Z,101136.31
2023-02-03T19:39:08.264Z,101135.28
2023-02-03T19:41:37.160Z,101130.81
2023-02-03T19:44:07.031Z,101144.47
2023-02-03T19:46:37.833Z,101144.69
2023-02-03T19:49:10.899Z,101133.47
2023-02-03T19:51:39.598Z,101154.44
2023-02-03T19:54:12.772Z,101146.09
2023-02-03T19:56:41.390Z,101148.09
2023-02-03T19:59:10.489Z,101149.34
2023-02-03T20:01:39.172Z,101149.53
2023-02-03T20:04:08.595Z,101142.81
2023-02-03T20:06:37.259Z,101144.03
2023-02-03T20:09:06.297Z,101147.06
2023-02-03T20:11:36.194Z,101136.25
2023-02-03T20:14:04.930Z,101143.38
2023-02-03T20:16:33.399Z,101141.34
2023-02-03T20:19:04.034Z,101149.91
2023-02-03T20:21:32.476Z,101146.84
2023-02-03T20:24:00.809Z,101162.31
2023-02-03T20:26:29.207Z,101171.72
2023-02-03T20:28:58.973Z,101171.28
2023-02-03T20:31:27.433Z,101185.75
2023-02-03T20:33:55.814Z,101183.31
2023-02-03T20:36:24.354Z,101181.88
2023-02-03T20:38:52.861Z,101199.78
2023-02-03T20:41:21.324Z,101194.72
2023-02-03T20:43:49.719Z,101200.59
2023-02-03T20:46:20.704Z,101195.53
2023-02-03T20:48:49.101Z,101193.31
2023-02-03T20:51:21.056Z,101192.25
2023-02-03T20:53:50.064Z,101190.22
2023-02-03T20:56:21.448Z,101200.81
2023-02-03T20:58:49.955Z,101195.09
2023-02-03T21:01:22.074Z,101199.19
2023-02-03T21:04:07.778Z,101202.00
2023-02-03T21:06:36.440Z,101196.31
2023-02-03T21:09:14.809Z,101192.19
2023-02-03T21:11:43.996Z,101199.59
2023-02-03T21:14:21.245Z,101198.56
2023-02-03T21:16:53.557Z,101191.00
2023-02-03T21:19:30.091Z,101204.06
2023-02-03T21:21:58.845Z,101211.16
2023-02-03T21:24:30.267Z,101201.97
2023-02-03T21:27:00.157Z,101203.81
2023-02-03T21:29:34.095Z,101199.16
2023-02-03T21:32:04.622Z,101213.19
2023-02-03T21:34:37.625Z,101208.28
2023-02-03T21:37:38.368Z,101188.31
2023-02-03T21:40:29.717Z,101189.13
2023-02-03T21:43:00.166Z,101195.47
2023-02-03T21:45:36.898Z,101185.91
2023-02-03T21:48:34.033Z,101175.72
2023-02-03T21:51:05.485Z,101180.25
2023-02-03T21:53:36.254Z,101183.69
2023-02-03T21:56:20.984Z,101171.66
2023-02-03T21:58:50.832Z,101191.00
2023-02-03T22:01:22.918Z,101186.72
2023-02-03T22:03:54.613Z,101199.16
2023-02-03T22:06:27.052Z,101220.69
2023-02-03T22:08:57.846Z,101215.41
2023-02-03T22:11:28.467Z,101224.38
2023-02-03T22:13:57.684Z,101216.59
2023-02-03T22:16:27.020Z,101229.25
2023-02-03T22:18:57.259Z,101229.88
2023-02-03T22:21:25.777Z,101238.63
2023-02-03T22:23:54.280Z,101251.06
2023-02-03T22:26:22.692Z,101234.16
2023-02-03T22:28:51.176Z,101231.50
2023-02-03T22:31:20.016Z,101244.75
2023-02-03T22:33:48.821Z,101242.91
2023-02-03T22:36:18.572Z,101255.16
2023-02-03T22:38:46.934Z,101262.06
2023-02-03T22:41:15.320Z,101253.31
2023-02-03T22:43:43.733Z,101262.06
2023-02-03T22:46:12.366Z,101268.19
2023-02-03T22:48:40.689Z,101262.88
2023-02-03T22:51:09.063Z,101256.56
2023-02-03T22:53:39.840Z,101253.31
2023-02-03T22:56:08.961Z,101258.41
2023-02-03T22:58:37.326Z,101262.88
2023-02-03T23:01:06.013Z,101275.09
2023-02-03T23:03:34.440Z,101278.75
2023-02-03T23:06:02.835Z,101274.28
2023-02-03T23:08:31.292Z,101277.75
2023-02-03T23:11:01.013Z,101282.44
2023-02-03T23:13:29.367Z,101287.72
2023-02-03T23:15:57.746Z,101278.97
2023-02-03T23:18:26.318Z,101291.38
2023-02-03T23:20:54.663Z,101273.84
2023-02-03T23:23:23.011Z,101286.91
2023-02-03T23:25:51.341Z,101277.53
2023-02-03T23:28:21.236Z,101271.41
2023-02-03T23:30:49.703Z,101279.53
2023-02-03T23:33:18.118Z,101280.38
2023-02-03T23:35:45.511Z,101284.00
2023-02-03T23:38:14.389Z,101287.47
2023-02-03T23:40:43.023Z,101281.56
2023-02-03T23:43:11.861Z,101296.41
2023-02-03T23:45:42.375Z,101296.41
2023-02-03T23:48:10.762Z,101299.28
2023-02-03T23:50:39.189Z,101323.63
2023-02-03T23:53:07.521Z,101303.13
2023-02-03T23:55:36.477Z,101298.84
2023-02-03T23:58:06.004Z,101300.66
